sensor_id;sensor_type;location;lat;lon;timestamp;pressure;altitude;pressure_sealevel;temperature;humidity
38912;BME280;28444;48.056;14.408;2023-03-26T00:01:20;97138.91;;;8.04;72.51
38912;BME280;28444;48.056;14.408;2023-03-26T00:03:47;97146.38;;;8.03;72.31
38912;BME280;28444;48.056;14.408;2023-03-26T00:06:23;97136.09;;;8.19;71.62
38912;BME280;28444;48.056;14.408;2023-03-26T00:08:51;97141.53;;;8.19;72.41
38912;BME280;28444;48.056;14.408;2023-03-26T00:11:20;97133.53;;;8.21;72.16
38912;BME280;28444;48.056;14.408;2023-03-26T00:13:47;97124.22;;;8.24;72.54
38912;BME280;28444;48.056;14.408;2023-03-26T00:16:17;97136.22;;;8.29;71.68
38912;BME280;28444;48.056;14.408;2023-03-26T00:18:44;97131.34;;;8.19;72.62
38912;BME280;28444;48.056;14.408;2023-03-26T00:21:14;97136.22;;;8.29;71.56
38912;BME280;28444;48.056;14.408;2023-03-26T00:23:42;97132.53;;;8.34;70.73
38912;BME280;28444;48.056;14.408;2023-03-26T00:26:09;97133.31;;;8.27;72.09
38912;BME280;28444;48.056;14.408;2023-03-26T00:28:38;97130.59;;;8.27;71.64
38912;BME280;28444;48.056;14.408;2023-03-26T00:31:08;97136.34;;;8.31;71.75
38912;BME280;28444;48.056;14.408;2023-03-26T00:33:36;97125.03;;;8.42;70.35
38912;BME280;28444;48.056;14.408;2023-03-26T00:36:06;97127.44;;;8.38;71.58
38912;BME280;28444;48.056;14.408;2023-03-26T00:38:36;97128.31;;;8.40;70.70
38912;BME280;28444;48.056;14.408;2023-03-26T00:41:13;97127.25;;;8.36;70.62
38912;BME280;28444;48.056;14.408;2023-03-26T00:43:44;97114.16;;;8.34;70.38
38912;BME280;28444;48.056;14.408;2023-03-26T00:46:14;97112.56;;;8.31;70.77
38912;BME280;28444;48.056;14.408;2023-03-26T00:48:41;97102.56;;;8.34;70.89
38912;BME280;28444;48.056;14.408;2023-03-26T00:51:13;97104.00;;;8.35;70.32
38912;BME280;28444;48.056;14.408;2023-03-26T00:53:45;97101.25;;;8.42;70.46
38912;BME280;28444;48.056;14.408;2023-03-26T00:56:12;97105.09;;;8.39;70.95
38912;BME280;28444;48.056;14.408;2023-03-26T00:58:39;97092.22;;;8.32;70.83
38912;BME280;28444;48.056;14.408;2023-03-26T01:01:09;97100.50;;;8.42;70.17
38912;BME280;28444;48.056;14.408;2023-03-26T01:03:40;97081.94;;;8.48;69.55
38912;BME280;28444;48.056;14.408;2023-03-26T01:06:29;97086.34;;;8.43;70.07
38912;BME280;28444;48.056;14.408;2023-03-26T01:09:06;97080.66;;;8.49;70.41
38912;BME280;28444;48.056;14.408;2023-03-26T01:11:38;97077.22;;;8.49;70.75
38912;BME280;28444;48.056;14.408;2023-03-26T01:14:09;97075.59;;;8.46;69.49
38912;BME280;28444;48.056;14.408;2023-03-26T01:16:46;97067.59;;;8.48;69.30
38912;BME280;28444;48.056;14.408;2023-03-26T01:22:41;97064.16;;;8.47;69.65
38912;BME280;28444;48.056;14.408;2023-03-26T01:25:11;97062.53;;;8.44;68.76
38912;BME280;28444;48.056;14.408;2023-03-26T01:27:47;97074.72;;;8.43;69.27
38912;BME280;28444;48.056;14.408;2023-03-26T01:30:24;97068.00;;;8.44;69.63
38912;BME280;28444;48.056;14.408;2023-03-26T01:33:16;97065.25;;;8.44;69.60
38912;BME280;28444;48.056;14.408;2023-03-26T01:35:55;97060.72;;;8.47;69.05
38912;BME280;28444;48.056;14.408;2023-03-26T01:38:46;97050.34;;;8.45;68.23
38912;BME280;28444;48.056;14.408;2023-03-26T01:41:20;97054.19;;;8.42;68.24
38912;BME280;28444;48.056;14.408;2023-03-26T01:44:01;97068.00;;;8.44;68.57
38912;BME280;28444;48.056;14.408;2023-03-26T01:46:32;97060.94;;;8.41;68.82
38912;BME280;28444;48.056;14.408;2023-03-26T01:49:03;97067.59;;;8.48;68.82
38912;BME280;28444;48.056;14.408;2023-03-26T01:51:33;97059.09;;;8.43;68.43
38912;BME280;28444;48.056;14.408;2023-03-26T01:54:01;97059.25;;;8.46;69.12
38912;BME280;28444;48.056;14.408;2023-03-26T02:00:27;97072.22;;;8.37;69.86
38912;BME280;28444;48.056;14.408;2023-03-26T02:06:16;97066.56;;;8.43;69.08
38912;BME280;28444;48.056;14.408;2023-03-26T02:08:57;97065.09;;;8.42;69.81
38912;BME280;28444;48.056;14.408;2023-03-26T02:11:24;97061.16;;;8.35;70.26
38912;BME280;28444;48.056;14.408;2023-03-26T02:14:00;97057.31;;;8.38;68.82
38912;BME280;28444;48.056;14.408;2023-03-26T02:16:28;97052.75;;;8.41;68.96
38912;BME280;28444;48.056;14.408;2023-03-26T02:18:55;97051.25;;;8.48;68.49
38912;BME280;28444;48.056;14.408;2023-03-26T02:21:25;97051.25;;;8.48;67.91
38912;BME280;28444;48.056;14.408;2023-03-26T02:23:55;97055.00;;;8.52;67.73
38912;BME280;28444;48.056;14.408;2023-03-26T02:26:30;97061.16;;;8.35;68.34
38912;BME280;28444;48.056;14.408;2023-03-26T02:28:57;97060.03;;;8.38;68.40
38912;BME280;28444;48.056;14.408;2023-03-26T02:31:24;97065.66;;;8.40;67.56
38912;BME280;28444;48.056;14.408;2023-03-26T02:33:56;97061.69;;;8.34;68.84
38912;BME280;28444;48.056;14.408;2023-03-26T02:36:22;97060.03;;;8.38;68.04
38912;BME280;28444;48.056;14.408;2023-03-26T02:38:55;97063.78;;;8.26;69.05
38912;BME280;28444;48.056;14.408;2023-03-26T02:41:23;97061.94;;;8.28;68.81
38912;BME280;28444;48.056;14.408;2023-03-26T02:43:50;97062.81;;;8.31;69.96
38912;BME280;28444;48.056;14.408;2023-03-26T02:46:16;97066.41;;;8.33;69.68
38912;BME280;28444;48.056;14.408;2023-03-26T02:48:43;97058.47;;;8.28;69.91
38912;BME280;28444;48.056;14.408;2023-03-26T02:51:10;97056.50;;;8.28;69.49
38912;BME280;28444;48.056;14.408;2023-03-26T02:53:36;97060.31;;;8.25;70.31
38912;BME280;28444;48.056;14.408;2023-03-26T02:56:05;97044.53;;;8.24;69.50
38912;BME280;28444;48.056;14.408;2023-03-26T02:58:32;97046.31;;;8.29;70.42
38912;BME280;28444;48.056;14.408;2023-03-26T03:00:58;97043.34;;;8.34;70.98
38912;BME280;28444;48.056;14.408;2023-03-26T03:03:28;97042.69;;;8.26;71.57
38912;BME280;28444;48.056;14.408;2023-03-26T03:05:56;97049.69;;;8.37;72.17
38912;BME280;28444;48.056;14.408;2023-03-26T03:08:25;97044.06;;;8.35;70.98
38912;BME280;28444;48.056;14.408;2023-03-26T03:11:07;97044.13;;;8.27;70.72
38912;BME280;28444;48.056;14.408;2023-03-26T03:13:35;97035.97;;;8.27;70.88
38912;BME280;28444;48.056;14.408;2023-03-26T03:16:02;97033.91;;;8.35;71.13
38912;BME280;28444;48.056;14.408;2023-03-26T03:18:28;97030.84;;;8.31;70.17
38912;BME280;28444;48.056;14.408;2023-03-26T03:20:55;97032.44;;;8.34;71.36
38912;BME280;28444;48.056;14.408;2023-03-26T03:23:24;97039.75;;;8.32;71.61
38912;BME280;28444;48.056;14.408;2023-03-26T03:25:51;97036.44;;;8.33;72.20
38912;BME280;28444;48.056;14.408;2023-03-26T03:28:18;97037.25;;;8.26;71.92
38912;BME280;28444;48.056;14.408;2023-03-26T03:30:45;97041.66;;;8.22;72.61
38912;BME280;28444;48.056;14.408;2023-03-26T03:33:14;97044.31;;;8.29;70.85
38912;BME280;28444;48.056;14.408;2023-03-26T03:35:41;97040.16;;;8.28;70.77
38912;BME280;28444;48.056;14.408;2023-03-26T03:38:09;97037.81;;;8.25;70.09
38912;BME280;28444;48.056;14.408;2023-03-26T03:40:36;97041.72;;;8.31;70.41
38912;BME280;28444;48.056;14.408;2023-03-26T03:43:02;97041.25;;;8.25;70.90
38912;BME280;28444;48.056;14.408;2023-03-26T03:45:29;97045.91;;;8.32;70.44
38912;BME280;28444;48.056;14.408;2023-03-26T03:47:55;97048.75;;;8.42;69.81
38912;BME280;28444;48.056;14.408;2023-03-26T03:50:22;97044.06;;;8.35;68.84
38912;BME280;28444;48.056;14.408;2023-03-26T03:52:49;97051.19;;;8.30;69.97
38912;BME280;28444;48.056;14.408;2023-03-26T03:55:16;97056.00;;;8.22;70.22
38912;BME280;28444;48.056;14.408;2023-03-26T03:57:43;97040.94;;;8.21;71.16
38912;BME280;28444;48.056;14.408;2023-03-26T04:00:10;97045.56;;;8.11;70.83
38912;BME280;28444;48.056;14.408;2023-03-26T04:02:38;97043.75;;;8.06;70.99
38912;BME280;28444;48.056;14.408;2023-03-26T04:05:08;97043.75;;;7.88;72.04
38912;BME280;28444;48.056;14.408;2023-03-26T04:07:37;97051.72;;;7.86;71.87
38912;BME280;28444;48.056;14.408;2023-03-26T04:10:05;97045.94;;;7.82;71.63
38912;BME280;28444;48.056;14.408;2023-03-26T04:12:32;97036.81;;;7.87;72.14
38912;BME280;28444;48.056;14.408;2023-03-26T04:14:59;97043.00;;;7.88;71.41
38912;BME280;28444;48.056;14.408;2023-03-26T04:17:25;97036.69;;;7.85;72.23
38912;BME280;28444;48.056;14.408;2023-03-26T04:19:52;97037.00;;;7.89;72.70
38912;BME280;28444;48.056;14.408;2023-03-26T04:22:20;97027.41;;;7.88;70.60
38912;BME280;28444;48.056;14.408;2023-03-26T04:24:47;97028.13;;;7.89;70.56
38912;BME280;28444;48.056;14.408;2023-03-26T04:27:17;97019.06;;;7.86;70.12
38912;BME280;28444;48.056;14.408;2023-03-26T04:29:47;97022.03;;;7.81;70.89
38912;BME280;28444;48.056;14.408;2023-03-26T04:32:23;97017.28;;;7.81;71.07
38912;BME280;28444;48.056;14.408;2023-03-26T04:34:52;97023.59;;;7.84;70.69
38912;BME280;28444;48.056;14.408;2023-03-26T04:37:28;97025.41;;;7.89;70.68
38912;BME280;28444;48.056;14.408;2023-03-26T04:40:02;97008.16;;;7.86;71.33
38912;BME280;28444;48.056;14.408;2023-03-26T04:42:37;97015.38;;;7.91;70.25
38912;BME280;28444;48.056;14.408;2023-03-26T04:45:07;97011.22;;;7.90;70.17
38912;BME280;28444;48.056;14.408;2023-03-26T04:47:34;97005.63;;;7.88;69.53
38912;BME280;28444;48.056;14.408;2023-03-26T04:50:07;97007.22;;;7.91;70.34
38912;BME280;28444;48.056;14.408;2023-03-26T04:52:35;97010.03;;;8.01;69.42
38912;BME280;28444;48.056;14.408;2023-03-26T04:55:02;97005.88;;;8.00;69.50
38912;BME280;28444;48.056;14.408;2023-03-26T04:57:40;97003.38;;;7.94;69.62
38912;BME280;28444;48.056;14.408;2023-03-26T05:00:14;96999.09;;;7.84;70.39
38912;BME280;28444;48.056;14.408;2023-03-26T05:02:42;96995.56;;;7.74;70.78
38912;BME280;28444;48.056;14.408;2023-03-26T05:05:10;96993.41;;;7.72;71.53
38912;BME280;28444;48.056;14.408;2023-03-26T05:07:37;96990.13;;;7.74;71.54
38912;BME280;28444;48.056;14.408;2023-03-26T05:10:04;96985.09;;;7.70;71.90
38912;BME280;28444;48.056;14.408;2023-03-26T05:12:31;96978.75;;;7.67;71.58
38912;BME280;28444;48.056;14.408;2023-03-26T05:14:58;96983.84;;;7.63;71.56
38912;BME280;28444;48.056;14.408;2023-03-26T05:17:25;96982.56;;;7.64;71.43
38912;BME280;28444;48.056;14.408;2023-03-26T05:19:52;96983.69;;;7.61;70.95
38912;BME280;28444;48.056;14.408;2023-03-26T05:22:18;96982.97;;;7.61;71.32
38912;BME280;28444;48.056;14.408;2023-03-26T05:24:45;96982.06;;;7.58;71.15
38912;BME280;28444;48.056;14.408;2023-03-26T05:27:13;96971.03;;;7.56;71.97
38912;BME280;28444;48.056;14.408;2023-03-26T05:29:40;96972.84;;;7.54;72.17
38912;BME280;28444;48.056;14.408;2023-03-26T05:32:08;96974.78;;;7.61;71.01
38912;BME280;28444;48.056;14.408;2023-03-26T05:34:35;96972.06;;;7.61;71.37
38912;BME280;28444;48.056;14.408;2023-03-26T05:37:03;96981.13;;;7.63;71.62
38912;BME280;28444;48.056;14.408;2023-03-26T05:39:29;96984.78;;;7.58;72.44
38912;BME280;28444;48.056;14.408;2023-03-26T05:41:56;96987.19;;;7.54;73.81
38912;BME280;28444;48.056;14.408;2023-03-26T05:44:23;96985.56;;;7.51;73.10
38912;BME280;28444;48.056;14.408;2023-03-26T05:46:49;96990.28;;;7.51;73.59
38912;BME280;28444;48.056;14.408;2023-03-26T05:49:16;96992.41;;;7.60;73.73
38912;BME280;28444;48.056;14.408;2023-03-26T05:51:43;96987.13;;;7.62;73.80
38912;BME280;28444;48.056;14.408;2023-03-26T05:54:09;96978.81;;;7.60;72.72
38912;BME280;28444;48.056;14.408;2023-03-26T05:56:36;96986.56;;;7.63;73.42
38912;BME280;28444;48.056;14.408;2023-03-26T05:59:03;96987.94;;;7.72;73.67
38912;BME280;28444;48.056;14.408;2023-03-26T06:01:30;96985.50;;;7.84;73.25
38912;BME280;28444;48.056;14.408;2023-03-26T06:03:56;96984.09;;;8.00;73.41
38912;BME280;28444;48.056;14.408;2023-03-26T06:06:23;96988.91;;;8.09;71.79
38912;BME280;28444;48.056;14.408;2023-03-26T06:08:51;96991.81;;;8.29;71.04
38912;BME280;28444;48.056;14.408;2023-03-26T06:11:28;96982.38;;;8.30;70.78
38912;BME280;28444;48.056;14.408;2023-03-26T06:13:56;96980.47;;;8.40;71.86
38912;BME280;28444;48.056;14.408;2023-03-26T06:16:22;96973.59;;;8.39;71.34
38912;BME280;28444;48.056;14.408;2023-03-26T06:18:53;96971.50;;;8.47;70.14
38912;BME280;28444;48.056;14.408;2023-03-26T06:21:24;96978.97;;;8.47;70.72
38912;BME280;28444;48.056;14.408;2023-03-26T06:23:51;96978.25;;;8.46;70.63
38912;BME280;28444;48.056;14.408;2023-03-26T06:26:17;96984.09;;;8.42;71.40
38912;BME280;28444;48.056;14.408;2023-03-26T06:28:44;96975.91;;;8.42;70.94
38912;BME280;28444;48.056;14.408;2023-03-26T06:31:11;96981.19;;;8.58;70.85
38912;BME280;28444;48.056;14.408;2023-03-26T06:33:38;96978.38;;;8.65;70.08
38912;BME280;28444;48.056;14.408;2023-03-26T06:36:04;96980.03;;;8.78;70.26
38912;BME280;28444;48.056;14.408;2023-03-26T06:38:31;96977.38;;;8.88;69.25
38912;BME280;28444;48.056;14.408;2023-03-26T06:41:04;96970.81;;;8.91;69.70
38912;BME280;28444;48.056;14.408;2023-03-26T06:43:31;96975.59;;;9.00;70.08
38912;BME280;28444;48.056;14.408;2023-03-26T06:46:00;96971.38;;;9.16;69.86
38912;BME280;28444;48.056;14.408;2023-03-26T06:48:27;96966.13;;;9.28;68.68
38912;BME280;28444;48.056;14.408;2023-03-26T06:50:53;96964.00;;;9.36;68.40
38912;BME280;28444;48.056;14.408;2023-03-26T06:53:21;96961.25;;;9.27;68.48
38912;BME280;28444;48.056;14.408;2023-03-26T06:55:47;96972.56;;;9.23;69.40
38912;BME280;28444;48.056;14.408;2023-03-26T06:58:14;96966.22;;;9.21;70.06
38912;BME280;28444;48.056;14.408;2023-03-26T07:00:42;96957.75;;;9.16;69.64
38912;BME280;28444;48.056;14.408;2023-03-26T07:03:08;96958.56;;;9.09;70.24
38912;BME280;28444;48.056;14.408;2023-03-26T07:05:37;96950.69;;;9.13;69.43
38912;BME280;28444;48.056;14.408;2023-03-26T07:08:04;96946.41;;;9.20;68.32
38912;BME280;28444;48.056;14.408;2023-03-26T07:10:31;96950.63;;;9.31;68.63
38912;BME280;28444;48.056;14.408;2023-03-26T07:13:00;96945.53;;;9.45;69.94
38912;BME280;28444;48.056;14.408;2023-03-26T07:15:29;96949.28;;;9.49;68.98
38912;BME280;28444;48.056;14.408;2023-03-26T07:17:56;96947.31;;;9.59;68.21
38912;BME280;28444;48.056;14.408;2023-03-26T07:20:23;96942.38;;;9.58;67.54
38912;BME280;28444;48.056;14.408;2023-03-26T07:22:50;96937.09;;;9.60;68.01
38912;BME280;28444;48.056;14.408;2023-03-26T07:25:17;96936.25;;;9.67;68.46
38912;BME280;28444;48.056;14.408;2023-03-26T07:28:22;96921.59;;;9.72;67.19
38912;BME280;28444;48.056;14.408;2023-03-26T07:33:52;96922.22;;;9.90;66.32
38912;BME280;28444;48.056;14.408;2023-03-26T07:36:42;96911.47;;;10.11;65.54
38912;BME280;28444;48.056;14.408;2023-03-26T07:39:38;96910.59;;;10.19;64.21
38912;BME280;28444;48.056;14.408;2023-03-26T07:42:21;96900.25;;;10.17;65.15
38912;BME280;28444;48.056;14.408;2023-03-26T07:45:24;96896.97;;;10.28;64.28
38912;BME280;28444;48.056;14.408;2023-03-26T07:47:51;96880.97;;;10.25;64.77
38912;BME280;28444;48.056;14.408;2023-03-26T07:50:21;96882.00;;;10.29;65.53
38912;BME280;28444;48.056;14.408;2023-03-26T07:52:48;96867.31;;;10.34;65.94
38912;BME280;28444;48.056;14.408;2023-03-26T07:55:16;96866.31;;;10.40;64.48
38912;BME280;28444;48.056;14.408;2023-03-26T07:58:57;96860.81;;;10.49;65.07
38912;BME280;28444;48.056;14.408;2023-03-26T08:01:02;96866.00;;;10.55;64.05
38912;BME280;28444;48.056;14.408;2023-03-26T08:04:20;96868.53;;;10.82;63.59
38912;BME280;28444;48.056;14.408;2023-03-26T08:06:58;96864.22;;;10.79;63.23
38912;BME280;28444;48.056;14.408;2023-03-26T08:09:37;96855.06;;;10.65;62.02
38912;BME280;28444;48.056;14.408;2023-03-26T08:12:51;96848.19;;;10.95;61.97
38912;BME280;28444;48.056;14.408;2023-03-26T08:15:57;96844.38;;;11.09;62.44
38912;BME280;28444;48.056;14.408;2023-03-26T08:18:48;96831.59;;;11.33;62.35
38912;BME280;28444;48.056;14.408;2023-03-26T08:21:25;96820.13;;;11.47;61.20
38912;BME280;28444;48.056;14.408;2023-03-26T08:27:21;96810.03;;;11.71;58.82
38912;BME280;28444;48.056;14.408;2023-03-26T08:29:59;96805.94;;;11.81;58.29
38912;BME280;28444;48.056;14.408;2023-03-26T08:32:27;96798.22;;;11.68;60.74
38912;BME280;28444;48.056;14.408;2023-03-26T08:34:54;96802.88;;;11.66;58.25
38912;BME280;28444;48.056;14.408;2023-03-26T08:37:22;96799.69;;;11.69;60.13
38912;BME280;28444;48.056;14.408;2023-03-26T08:39:49;96792.75;;;11.90;57.66
38912;BME280;28444;48.056;14.408;2023-03-26T08:46:35;96778.53;;;12.03;56.97
38912;BME280;28444;48.056;14.408;2023-03-26T08:49:34;96760.38;;;11.98;60.08
38912;BME280;28444;48.056;14.408;2023-03-26T08:55:32;96754.13;;;12.07;60.18
38912;BME280;28444;48.056;14.408;2023-03-26T09:01:30;96733.53;;;12.18;54.46
38912;BME280;28444;48.056;14.408;2023-03-26T09:16:57;96704.00;;;12.40;54.34
38912;BME280;28444;48.056;14.408;2023-03-26T09:30:01;96679.56;;;12.56;52.79
38912;BME280;28444;48.056;14.408;2023-03-26T09:36:17;96658.66;;;12.97;53.85
38912;BME280;28444;48.056;14.408;2023-03-26T09:39:16;96649.41;;;13.16;52.36
38912;BME280;28444;48.056;14.408;2023-03-26T09:53:54;96604.16;;;13.29;49.74
38912;BME280;28444;48.056;14.408;2023-03-26T10:05:48;96594.38;;;13.26;51.82
38912;BME280;28444;48.056;14.408;2023-03-26T10:09:17;96578.28;;;13.46;51.57
38912;BME280;28444;48.056;14.408;2023-03-26T10:11:59;96578.19;;;13.58;50.21
38912;BME280;28444;48.056;14.408;2023-03-26T10:15:23;96580.84;;;13.56;52.17
38912;BME280;28444;48.056;14.408;2023-03-26T10:18:45;96565.66;;;13.41;51.32
38912;BME280;28444;48.056;14.408;2023-03-26T10:21:29;96568.06;;;13.35;49.88
38912;BME280;28444;48.056;14.408;2023-03-26T10:24:22;96555.25;;;13.39;49.49
38912;BME280;28444;48.056;14.408;2023-03-26T10:31:00;96544.16;;;13.63;48.93
38912;BME280;28444;48.056;14.408;2023-03-26T10:34:29;96526.97;;;13.76;50.63
38912;BME280;28444;48.056;14.408;2023-03-26T10:40:50;96508.97;;;13.73;50.11
38912;BME280;28444;48.056;14.408;2023-03-26T10:50:22;96490.13;;;14.23;49.41
38912;BME280;28444;48.056;14.408;2023-03-26T10:55:56;96473.34;;;13.89;50.00
38912;BME280;28444;48.056;14.408;2023-03-26T10:58:28;96463.91;;;13.92;48.34
38912;BME280;28444;48.056;14.408;2023-03-26T11:01:03;96461.84;;;14.06;48.96
38912;BME280;28444;48.056;14.408;2023-03-26T11:03:48;96446.06;;;14.20;48.60
38912;BME280;28444;48.056;14.408;2023-03-26T11:06:33;96451.31;;;14.30;45.21
38912;BME280;28444;48.056;14.408;2023-03-26T11:09:31;96445.50;;;14.38;50.70
38912;BME280;28444;48.056;14.408;2023-03-26T11:12:23;96445.19;;;14.45;50.25
38912;BME280;28444;48.056;14.408;2023-03-26T11:15:17;96440.09;;;14.40;49.59
38912;BME280;28444;48.056;14.408;2023-03-26T11:18:01;96442.03;;;14.37;49.70
38912;BME280;28444;48.056;14.408;2023-03-26T11:20:38;96442.78;;;14.24;49.90
38912;BME280;28444;48.056;14.408;2023-03-26T11:23:36;96436.97;;;14.32;52.18
38912;BME280;28444;48.056;14.408;2023-03-26T11:29:13;96428.47;;;14.55;49.81
38912;BME280;28444;48.056;14.408;2023-03-26T11:32:10;96423.97;;;14.62;50.56
38912;BME280;28444;48.056;14.408;2023-03-26T11:34:44;96427.53;;;14.64;48.60
38912;BME280;28444;48.056;14.408;2023-03-26T11:37:26;96426.00;;;14.48;51.63
38912;BME280;28444;48.056;14.408;2023-03-26T11:39:56;96443.84;;;14.60;47.87
38912;BME280;28444;48.056;14.408;2023-03-26T11:42:24;96448.16;;;14.50;47.45
38912;BME280;28444;48.056;14.408;2023-03-26T11:45:03;96443.50;;;14.25;50.57
38912;BME280;28444;48.056;14.408;2023-03-26T11:47:36;96445.44;;;14.08;49.89
38912;BME280;28444;48.056;14.408;2023-03-26T11:50:05;96444.84;;;14.10;50.16
38912;BME280;28444;48.056;14.408;2023-03-26T11:52:33;96449.72;;;14.11;50.97
38912;BME280;28444;48.056;14.408;2023-03-26T11:55:01;96457.75;;;14.21;51.10
38912;BME280;28444;48.056;14.408;2023-03-26T11:57:33;96471.81;;;14.27;49.85
38912;BME280;28444;48.056;14.408;2023-03-26T12:00:06;96471.31;;;14.17;48.28
38912;BME280;28444;48.056;14.408;2023-03-26T12:02:43;96479.25;;;14.11;48.45
38912;BME280;28444;48.056;14.408;2023-03-26T12:05:21;96491.88;;;13.75;50.08
38912;BME280;28444;48.056;14.408;2023-03-26T12:07:55;96501.88;;;13.42;50.53
38912;BME280;28444;48.056;14.408;2023-03-26T12:10:27;96504.38;;;12.99;50.83
38912;BME280;28444;48.056;14.408;2023-03-26T12:12:57;96514.19;;;12.90;51.45
38912;BME280;28444;48.056;14.408;2023-03-26T12:15:24;96506.25;;;12.83;51.39
38912;BME280;28444;48.056;14.408;2023-03-26T12:17:54;96497.34;;;12.70;52.62
38912;BME280;28444;48.056;14.408;2023-03-26T12:22:55;96483.31;;;12.64;52.20
38912;BME280;28444;48.056;14.408;2023-03-26T12:25:27;96481.38;;;12.67;52.02
38912;BME280;28444;48.056;14.408;2023-03-26T12:28:17;96477.59;;;12.86;50.72
38912;BME280;28444;48.056;14.408;2023-03-26T12:30:57;96459.50;;;12.81;53.41
38912;BME280;28444;48.056;14.408;2023-03-26T12:33:29;96449.56;;;12.87;52.49
38912;BME280;28444;48.056;14.408;2023-03-26T12:36:20;96464.75;;;13.02;51.85
38912;BME280;28444;48.056;14.408;2023-03-26T12:38:48;96460.75;;;12.91;50.63
38912;BME280;28444;48.056;14.408;2023-03-26T12:41:39;96464.00;;;12.88;49.92
38912;BME280;28444;48.056;14.408;2023-03-26T12:44:55;96465.53;;;12.65;50.36
38912;BME280;28444;48.056;14.408;2023-03-26T12:47:30;96463.63;;;12.56;52.36
38912;BME280;28444;48.056;14.408;2023-03-26T12:50:19;96455.16;;;12.64;52.87
38912;BME280;28444;48.056;14.408;2023-03-26T12:56:25;96459.72;;;12.85;51.83
38912;BME280;28444;48.056;14.408;2023-03-26T12:59:33;96471.28;;;12.83;51.65
38912;BME280;28444;48.056;14.408;2023-03-26T13:06:09;96448.91;;;12.75;50.25
38912;BME280;28444;48.056;14.408;2023-03-26T13:15:11;96451.69;;;12.63;52.47
38912;BME280;28444;48.056;14.408;2023-03-26T13:23:50;96448.09;;;12.72;54.09
38912;BME280;28444;48.056;14.408;2023-03-26T13:26:52;96447.59;;;12.50;54.89
38912;BME280;28444;48.056;14.408;2023-03-26T13:29:25;96441.88;;;12.46;56.79
38912;BME280;28444;48.056;14.408;2023-03-26T13:32:14;96443.69;;;12.42;58.16
38912;BME280;28444;48.056;14.408;2023-03-26T13:35:25;96445.19;;;12.45;58.14
38912;BME280;28444;48.056;14.408;2023-03-26T13:37:55;96447.41;;;12.35;59.25
38912;BME280;28444;48.056;14.408;2023-03-26T13:40:36;96453.59;;;12.23;60.49
38912;BME280;28444;48.056;14.408;2023-03-26T13:43:25;96456.03;;;12.17;62.11
38912;BME280;28444;48.056;14.408;2023-03-26T13:46:35;96456.50;;;12.14;63.78
38912;BME280;28444;48.056;14.408;2023-03-26T13:49:10;96447.34;;;11.97;62.48
38912;BME280;28444;48.056;14.408;2023-03-26T13:52:14;96414.38;;;11.72;66.00
38912;BME280;28444;48.056;14.408;2023-03-26T13:54:48;96413.91;;;11.64;66.21
38912;BME280;28444;48.056;14.408;2023-03-26T13:57:38;96408.66;;;11.79;64.96
38912;BME280;28444;48.056;14.408;2023-03-26T14:00:17;96400.47;;;11.91;66.85
38912;BME280;28444;48.056;14.408;2023-03-26T14:03:17;96377.31;;;12.06;67.08
38912;BME280;28444;48.056;14.408;2023-03-26T14:05:49;96383.50;;;12.07;66.13
38912;BME280;28444;48.056;14.408;2023-03-26T14:08:33;96380.84;;;12.20;66.43
38912;BME280;28444;48.056;14.408;2023-03-26T14:11:08;96372.00;;;12.22;65.57
38912;BME280;28444;48.056;14.408;2023-03-26T14:14:00;96385.00;;;12.21;64.82
38912;BME280;28444;48.056;14.408;2023-03-26T14:16:35;96385.06;;;12.35;64.55
38912;BME280;28444;48.056;14.408;2023-03-26T14:22:49;96385.34;;;12.27;64.91
38912;BME280;28444;48.056;14.408;2023-03-26T14:28:18;96403.34;;;12.19;64.80
38912;BME280;28444;48.056;14.408;2023-03-26T14:31:10;96404.19;;;12.21;63.97
38912;BME280;28444;48.056;14.408;2023-03-26T14:36:35;96399.72;;;11.91;64.88
38912;BME280;28444;48.056;14.408;2023-03-26T14:42:17;96410.38;;;11.38;68.97
38912;BME280;28444;48.056;14.408;2023-03-26T14:45:04;96399.63;;;11.18;70.66
38912;BME280;28444;48.056;14.408;2023-03-26T14:48:00;96390.84;;;11.20;70.21
38912;BME280;28444;48.056;14.408;2023-03-26T14:50:42;96385.84;;;11.28;68.75
38912;BME280;28444;48.056;14.408;2023-03-26T14:53:43;96379.53;;;11.25;69.29
38912;BME280;28444;48.056;14.408;2023-03-26T14:56:41;96377.38;;;11.36;69.02
38912;BME280;28444;48.056;14.408;2023-03-26T15:07:50;96348.00;;;11.24;68.29
38912;BME280;28444;48.056;14.408;2023-03-26T15:26:57;96332.53;;;11.41;67.79
38912;BME280;28444;48.056;14.408;2023-03-26T15:40:49;96321.97;;;11.23;68.73
38912;BME280;28444;48.056;14.408;2023-03-26T15:43:20;96324.47;;;11.07;68.89
38912;BME280;28444;48.056;14.408;2023-03-26T15:46:22;96334.56;;;11.17;68.41
38912;BME280;28444;48.056;14.408;2023-03-26T15:59:39;96339.56;;;10.97;71.07
38912;BME280;28444;48.056;14.408;2023-03-26T16:02:32;96340.75;;;10.94;70.77
38912;BME280;28444;48.056;14.408;2023-03-26T16:10:50;96324.69;;;10.88;70.94
38912;BME280;28444;48.056;14.408;2023-03-26T16:13:32;96319.47;;;10.80;70.78
38912;BME280;28444;48.056;14.408;2023-03-26T16:16:16;96318.97;;;10.84;70.36
38912;BME280;28444;48.056;14.408;2023-03-26T16:22:08;96319.22;;;10.88;68.78
38912;BME280;28444;48.056;14.408;2023-03-26T16:24:42;96319.13;;;10.86;68.47
38912;BME280;28444;48.056;14.408;2023-03-26T16:30:12;96321.84;;;10.86;68.17
38912;BME280;28444;48.056;14.408;2023-03-26T16:32:44;96311.63;;;10.87;67.50
38912;BME280;28444;48.056;14.408;2023-03-26T16:37:45;96320.31;;;10.83;66.19
38912;BME280;28444;48.056;14.408;2023-03-26T16:45:54;96327.41;;;10.76;65.59
38912;BME280;28444;48.056;14.408;2023-03-26T16:57:24;96331.66;;;10.56;65.66
38912;BME280;28444;48.056;14.408;2023-03-26T17:00:04;96326.41;;;10.48;66.57
38912;BME280;28444;48.056;14.408;2023-03-26T17:16:48;96331.41;;;10.52;65.98
38912;BME280;28444;48.056;14.408;2023-03-26T17:19:41;96328.44;;;10.48;66.35